Time;durP1;ratioP1;P1;durP2;ratioP2;P2;SDS_P1;SDS_P2;PMS_P1;PMS_P2;Temp;Humidity;BMP_temperature;BMP_pressure;BME280_temperature;BME280_humidity;BME280_pressure;Samples;Min_cycle;Max_cycle;Signal;HPM_P1;HPM_P2
2022/06/16 00:01:43;;;;;;;6.38;2.63;;;;;;;22.39;40.41;102088.59;4830095;29;20029;-79
2022/06/16 00:04:08;;;;;;;4.85;2.42;;;;;;;22.40;40.54;102087.72;4845283;29;20484;-80
2022/06/16 00:06:34;;;;;;;4.82;2.40;;;;;;;22.41;40.58;102085.94;4815209;29;20483;-79
2022/06/16 00:08:59;;;;;;;4.13;2.22;;;;;;;22.40;40.45;102079.84;4830268;29;20052;-79
2022/06/16 00:11:24;;;;;;;4.78;2.30;;;;;;;22.38;40.84;102086.84;4830056;29;20120;-79
2022/06/16 00:13:51;;;;;;;3.90;2.40;;;;;;;22.37;40.61;102082.50;4845225;29;20503;-78
2022/06/16 00:16:18;;;;;;;5.18;2.30;;;;;;;22.37;40.93;102082.50;4814998;29;20038;-78
2022/06/16 00:18:44;;;;;;;4.57;2.50;;;;;;;22.38;40.69;102084.22;4844877;29;20030;-79
2022/06/16 00:21:11;;;;;;;4.43;2.25;;;;;;;22.44;40.50;102088.56;4844940;29;20481;-79
2022/06/16 00:23:37;;;;;;;5.05;2.22;;;;;;;22.46;41.08;102092.03;4844869;29;20372;-78
2022/06/16 00:26:02;;;;;;;5.07;2.20;;;;;;;22.41;40.91;102099.94;4829917;29;20085;-79
2022/06/16 00:28:28;;;;;;;3.92;2.20;;;;;;;22.36;40.94;102107.88;4829890;29;20030;-79
2022/06/16 00:31:01;;;;;;;4.85;2.40;;;;;;;22.37;40.70;102122.72;4814276;29;20038;-79
2022/06/16 00:33:26;;;;;;;;;;;;;;;22.35;40.68;102115.75;4845108;29;20037;-79
2022/06/16 00:35:52;;;;;;;5.22;2.25;;;;;;;22.36;40.82;102112.22;4829539;29;19968;-79
2022/06/16 00:38:17;;;;;;;4.00;2.33;;;;;;;22.40;40.81;102108.69;4814043;29;20060;-79
2022/06/16 00:40:43;;;;;;;5.18;2.17;;;;;;;22.39;40.71;102110.44;4845043;29;20076;-79
2022/06/16 00:43:09;;;;;;;3.63;2.15;;;;;;;22.35;40.73;102110.50;4829564;29;20782;-79
2022/06/16 00:45:56;;;;;;;4.45;2.30;;;;;;;22.34;40.93;102107.00;4829562;29;20040;-79
2022/06/16 00:48:30;;;;;;;4.55;2.60;;;;;;;22.37;40.89;102104.34;4844652;29;20034;-79
2022/06/16 00:51:02;;;;;;;4.38;2.30;;;;;;;22.33;40.74;102107.88;4844746;29;20392;-78
2022/06/16 00:53:28;;;;;;;4.18;2.60;;;;;;;22.30;40.97;102099.19;4844601;29;20064;-78
2022/06/16 00:55:54;;;;;;;5.38;2.35;;;;;;;22.28;40.68;102101.81;4830063;29;20029;-78
2022/06/16 00:58:21;;;;;;;2.42;1.92;;;;;;;22.26;40.82;102105.34;4829452;29;20093;-79
2022/06/16 01:00:48;;;;;;;8.07;2.45;;;;;;;22.25;40.97;102108.84;4829451;29;20025;-79
2022/06/16 01:04:51;;;;;;;4.97;2.40;;;;;;;22.24;41.20;102112.34;4844699;29;20033;-79
2022/06/16 01:06:01;;;;;;;5.90;2.60;;;;;;;22.32;40.67;102110.50;4861035;29;20040;-79
2022/06/16 01:08:27;;;;;;;3.50;2.10;;;;;;;22.36;40.79;102117.47;4844422;29;20125;-79
2022/06/16 01:10:59;;;;;;;3.28;2.25;;;;;;;22.34;40.58;102111.38;4814116;29;20120;-79
2022/06/16 01:13:42;;;;;;;4.05;2.30;;;;;;;22.35;40.76;102105.25;4844249;29;20035;-81
2022/06/16 01:16:34;;;;;;;3.67;2.15;;;;;;;22.34;40.50;102101.78;4844433;29;20097;-79
2022/06/16 01:19:10;;;;;;;4.05;2.28;;;;;;;22.34;40.83;102109.63;4844253;29;20066;-79
2022/06/16 01:21:43;;;;;;;2.40;1.98;;;;;;;22.34;40.40;102103.50;4844472;29;20029;-79
2022/06/16 01:24:28;;;;;;;3.03;2.00;;;;;;;22.35;40.71;102110.50;4860994;29;20076;-78
2022/06/16 01:27:02;;;;;;;4.78;2.38;;;;;;;22.32;40.58;102111.41;4861025;29;20113;-78
2022/06/16 01:29:51;;;;;;;4.95;2.00;;;;;;;22.32;40.45;102107.88;4844304;29;20033;-79
2022/06/16 01:32:42;;;;;;;5.70;2.10;;;;;;;22.32;40.30;102121.88;4844256;29;20036;-79
2022/06/16 01:35:11;;;;;;;3.83;2.25;;;;;;;22.34;40.45;102124.47;4844158;29;20030;-78
2022/06/16 01:37:46;;;;;;;5.93;2.20;;;;;;;22.32;40.44;102123.63;4844209;29;20029;-79
2022/06/16 01:40:20;;;;;;;4.18;1.98;;;;;;;22.33;40.30;102130.63;4843765;29;20084;-80
2022/06/16 01:42:49;;;;;;;2.85;1.83;;;;;;;22.28;40.60;102129.81;4844196;29;20117;-79
2022/06/16 01:45:25;;;;;;;4.55;1.95;;;;;;;22.29;40.41;102126.28;4844195;29;20028;-78
2022/06/16 01:47:51;;;;;;;2.80;1.95;;;;;;;22.23;40.11;102129.81;4844259;29;20068;-80
2022/06/16 01:50:24;;;;;;;3.03;1.90;;;;;;;22.23;40.11;102128.94;4844765;29;20116;-79
2022/06/16 01:53:07;;;;;;;2.05;1.58;;;;;;;22.23;40.28;102126.31;4847656;29;20480;-79
2022/06/16 01:55:36;;;;;;;;;;;;;;;22.28;40.36;102121.94;4847990;29;20170;-79
2022/06/16 01:58:07;;;;;;;4.75;2.03;;;;;;;22.24;40.12;102117.59;4864057;29;19915;-80
2022/06/16 02:00:33;;;;;;;5.03;2.20;;;;;;;22.21;40.27;102114.94;4847776;29;20472;-79
2022/06/16 02:03:14;;;;;;;3.53;1.98;;;;;;;22.16;40.28;102115.84;4847419;29;20041;-79
2022/06/16 02:05:49;;;;;;;4.78;2.10;;;;;;;22.17;40.45;102122.00;4847358;29;20503;-79
2022/06/16 02:08:20;;;;;;;3.35;2.00;;;;;;;22.26;40.24;102121.06;4847321;29;20026;-79
2022/06/16 02:10:51;;;;;;;4.75;2.00;;;;;;;22.25;40.19;102121.94;4847299;29;20029;-79
2022/06/16 02:13:21;;;;;;;3.35;1.95;;;;;;;22.24;40.32;102120.22;4847245;29;20124;-79
2022/06/16 02:15:59;;;;;;;3.47;2.03;;;;;;;22.20;40.36;102124.56;4847202;29;20037;-79
2022/06/16 02:18:29;;;;;;;4.55;1.83;;;;;;;22.22;40.14;102135.94;4847095;29;20056;-79
2022/06/16 02:21:17;;;;;;;5.00;2.15;;;;;;;22.23;40.18;102142.94;4863750;29;20028;-80
2022/06/16 02:23:44;;;;;;;5.38;1.90;;;;;;;22.18;40.45;102135.06;4847058;29;20061;-80
2022/06/16 02:26:10;;;;;;;3.03;1.98;;;;;;;22.17;40.16;102130.72;4846945;29;20029;-79
2022/06/16 02:29:19;;;;;;;2.67;1.92;;;;;;;22.19;40.27;102136.81;4831786;29;20029;-80
2022/06/16 02:31:51;;;;;;;3.40;1.70;;;;;;;22.21;40.42;102139.44;4863395;29;20069;-80
2022/06/16 02:34:26;;;;;;;4.80;2.20;;;;;;;22.19;40.16;102146.44;4863510;29;20037;-79
2022/06/16 02:37:18;;;;;;;4.45;2.15;;;;;;;22.15;40.18;102156.06;4846826;29;20029;-79
2022/06/16 02:40:03;;;;;;;3.08;1.85;;;;;;;22.13;40.34;102152.59;4863150;29;20121;-80
2022/06/16 02:42:43;;;;;;;5.03;2.15;;;;;;;22.15;40.41;102153.47;4846651;29;20116;-79
2022/06/16 02:45:36;;;;;;;5.30;1.90;;;;;;;22.17;40.43;102149.06;4846639;29;20029;-82
2022/06/16 02:48:11;;;;;;;3.45;2.10;;;;;;;22.17;40.17;102150.84;4846831;29;20029;-79
2022/06/16 02:50:36;;;;;;;3.65;1.83;;;;;;;22.21;40.29;102149.03;4846418;29;20026;-79
2022/06/16 02:53:13;;;;;;;3.53;1.92;;;;;;;22.19;39.98;102149.06;4846553;29;20129;-80
2022/06/16 02:55:43;;;;;;;3.70;2.10;;;;;;;22.12;40.12;102149.97;4846877;29;20021;-81
2022/06/16 02:58:14;;;;;;;5.60;2.30;;;;;;;22.16;40.22;102155.19;4846933;29;20032;-79
2022/06/16 03:00:43;;;;;;;5.38;2.22;;;;;;;22.10;40.15;102152.63;4849149;29;20029;-80
2022/06/16 03:03:41;;;;;;;4.28;2.28;;;;;;;22.11;40.22;102163.97;4846354;29;20073;-80
2022/06/16 03:06:06;;;;;;;6.82;2.75;;;;;;;22.12;39.87;102156.13;4816131;29;20045;-79
2022/06/16 03:08:39;;;;;;;6.28;2.33;;;;;;;22.12;40.02;102148.25;4831150;29;20547;-79
2022/06/16 03:11:05;;;;;;;3.42;2.10;;;;;;;22.12;39.84;102145.63;4846124;29;20025;-80
2022/06/16 03:13:32;;;;;;;4.78;2.10;;;;;;;22.12;39.95;102145.63;4830942;29;20058;-79
2022/06/16 03:16:00;;;;;;;4.80;2.28;;;;;;;22.10;40.06;102157.88;4831061;29;20400;-80
2022/06/16 03:18:26;;;;;;;4.03;2.10;;;;;;;22.10;39.84;102152.63;4846479;29;20030;-80
2022/06/16 03:20:52;;;;;;;4.80;2.50;;;;;;;22.07;39.84;102155.25;4846223;29;20044;-79
2022/06/16 03:23:18;;;;;;;2.95;2.22;;;;;;;22.12;39.85;102156.13;4862596;29;20026;-79
2022/06/16 03:25:44;;;;;;;3.88;2.13;;;;;;;22.05;39.71;102156.16;4830793;29;20037;-79
2022/06/16 03:28:10;;;;;;;3.83;2.70;;;;;;;22.03;39.84;102158.78;4830644;29;20117;-79
2022/06/16 03:30:38;;;;;;;4.85;2.40;;;;;;;22.02;39.98;102156.19;4830654;29;20120;-79
2022/06/16 03:33:05;;;;;;;4.03;2.13;;;;;;;22.00;39.96;102153.56;4846606;29;20449;-79
2022/06/16 03:35:31;;;;;;;4.25;2.45;;;;;;;22.01;39.70;102159.69;4830970;29;20408;-79
2022/06/16 03:37:59;;;;;;;4.32;2.40;;;;;;;22.04;39.80;102178.88;4830656;29;20034;-79
2022/06/16 03:40:24;;;;;;;4.22;2.40;;;;;;;22.05;39.90;102172.75;4845576;29;20137;-79
2022/06/16 03:42:50;;;;;;;4.10;2.22;;;;;;;22.00;39.83;102176.31;4815251;29;20112;-79
2022/06/16 03:45:16;;;;;;;3.70;2.38;;;;;;;22.00;39.84;102181.53;4815388;29;20029;-79
2022/06/16 03:47:42;;;;;;;3.40;2.03;;;;;;;22.01;39.96;102189.38;4830579;29;20040;-85
2022/06/16 03:50:11;;;;;;;5.03;2.58;;;;;;;21.96;40.00;102193.78;4830621;29;20397;-88
2022/06/16 03:52:36;;;;;;;4.70;2.38;;;;;;;22.00;39.78;102200.75;4847014;29;20037;-91
2022/06/16 03:55:02;;;;;;;4.07;2.65;;;;;;;22.07;39.80;102201.59;4816376;29;20392;-87
2022/06/16 03:57:27;;;;;;;5.25;2.85;;;;;;;22.10;39.77;102198.94;4831280;29;20038;-91
2022/06/16 03:59:53;;;;;;;4.50;2.35;;;;;;;22.04;39.80;102199.88;4816369;29;20082;-91
2022/06/16 04:02:21;;;;;;;6.90;2.60;;;;;;;22.09;39.70;102205.06;4815839;29;20073;-91
2022/06/16 04:04:46;;;;;;;3.70;2.30;;;;;;;22.09;39.63;102205.94;4845948;29;20037;-90
2022/06/16 04:07:15;;;;;;;5.47;2.72;;;;;;;22.06;39.65;102218.19;4815260;29;20061;-90
2022/06/16 04:09:40;;;;;;;8.00;2.65;;;;;;;22.08;39.52;102221.66;4831596;29;20377;-91
2022/06/16 04:12:06;;;;;;;5.35;2.42;;;;;;;22.11;39.50;102229.53;4830662;29;20074;-90
2022/06/16 04:14:32;;;;;;;5.10;2.40;;;;;;;22.07;39.62;102228.66;4845547;29;20140;-90
2022/06/16 04:16:58;;;;;;;3.75;2.58;;;;;;;22.10;39.38;102225.16;4846944;29;20081;-88
2022/06/16 04:19:27;;;;;;;4.25;2.33;;;;;;;22.11;39.26;102237.38;4846828;29;20044;-90
2022/06/16 04:21:53;;;;;;;4.53;2.40;;;;;;;22.14;39.51;102232.97;4846330;29;20057;-88
2022/06/16 04:24:20;;;;;;;5.88;2.67;;;;;;;22.14;39.38;102238.22;4830589;29;20025;-89
2022/06/16 04:26:47;;;;;;;5.22;2.70;;;;;;;22.16;39.26;102246.09;4844837;29;20056;-89
2022/06/16 04:29:14;;;;;;;5.47;2.88;;;;;;;22.13;39.13;102243.50;4845550;29;20025;-90
2022/06/16 04:31:39;;;;;;;5.00;3.05;;;;;;;22.12;39.33;102250.50;4830212;29;20056;-89
2022/06/16 04:34:05;;;;;;;6.15;3.10;;;;;;;22.15;39.09;102249.59;4845277;29;20021;-89
2022/06/16 04:36:30;;;;;;;7.00;2.97;;;;;;;22.18;39.01;102252.19;4845350;29;20074;-89
2022/06/16 04:38:58;;;;;;;5.28;3.10;;;;;;;22.26;39.13;102246.94;4814838;29;20065;-88
2022/06/16 04:41:23;;;;;;;7.70;2.80;;;;;;;22.32;39.07;102257.38;4845174;29;20032;-87
2022/06/16 04:43:49;;;;;;;5.30;3.20;;;;;;;22.46;38.93;102255.53;4814870;29;20037;-88
2022/06/16 04:46:17;;;;;;;5.38;2.95;;;;;;;22.61;38.24;102254.53;4845581;29;20041;-84
2022/06/16 04:48:45;;;;;;;7.10;3.03;;;;;;;22.77;37.86;102263.16;4829823;29;20029;-84
2022/06/16 04:51:12;;;;;;;4.90;3.15;;;;;;;22.86;37.75;102268.31;4844662;29;20026;-84
2022/06/16 04:53:38;;;;;;;7.00;3.10;;;;;;;22.92;37.58;102260.38;4844643;29;20583;-86
2022/06/16 04:56:05;;;;;;;6.07;3.03;;;;;;;23.03;37.85;102268.19;4829787;29;20124;-85
2022/06/16 04:58:31;;;;;;;6.03;3.30;;;;;;;23.05;37.78;102274.28;4844877;29;20061;-79
2022/06/16 05:00:57;;;;;;;8.85;3.38;;;;;;;23.18;38.33;102285.53;4829430;29;20090;-84
2022/06/16 05:03:27;;;;;;;11.48;3.55;;;;;;;23.09;38.04;102283.88;4829453;29;20128;-78
2022/06/16 05:05:54;;;;;;;16.38;5.03;;;;;;;23.06;37.91;102286.56;4844426;29;20491;-87
2022/06/16 05:08:20;;;;;;;17.30;5.13;;;;;;;23.14;37.70;102287.31;4845340;29;20033;-91
2022/06/16 05:10:47;;;;;;;7.85;3.47;;;;;;;23.18;38.57;102294.28;4814987;29;20029;-88
2022/06/16 05:13:13;;;;;;;9.85;3.97;;;;;;;23.09;37.31;102294.38;4861736;29;20034;-93
2022/06/16 05:15:39;;;;;;;7.50;3.60;;;;;;;22.77;36.76;102289.38;4845243;29;20530;-90
2022/06/16 05:18:05;;;;;;;11.00;4.55;;;;;;;22.68;36.22;102305.22;4815433;29;20113;-90
2022/06/16 05:20:31;;;;;;;8.82;3.72;;;;;;;22.58;35.53;102299.16;4846795;29;20029;-92
2022/06/16 05:22:57;;;;;;;7.78;3.60;;;;;;;22.57;35.50;102300.03;4833785;29;20097;-94
2022/06/16 05:25:25;;;;;;;8.43;3.00;;;;;;;22.55;34.62;102313.16;4848378;29;20540;-92
2022/06/16 05:27:50;;;;;;;7.75;3.25;;;;;;;22.53;34.69;102309.69;4847396;29;20045;-93
2022/06/16 05:30:16;;;;;;;10.30;2.63;;;;;;;22.53;34.57;102309.69;4834168;29;20034;-93
2022/06/16 05:32:42;;;;;;;5.38;2.70;;;;;;;22.57;34.08;102313.16;4834497;29;20125;-92
2022/06/16 05:35:07;;;;;;;7.25;2.88;;;;;;;22.64;34.32;102309.59;4849803;29;20117;-92
2022/06/16 05:37:33;;;;;;;4.93;2.45;;;;;;;22.65;33.86;102311.34;4849566;29;20029;-91
2022/06/16 05:39:59;;;;;;;6.70;2.80;;;;;;;22.58;33.81;102315.78;4848732;29;20500;-91
2022/06/16 05:42:24;;;;;;;5.72;2.80;;;;;;;22.61;33.54;102320.13;4849516;29;20055;-93
2022/06/16 05:44:50;;;;;;;5.38;2.47;;;;;;;22.67;33.46;102322.72;4851714;29;20445;-90
2022/06/16 05:47:15;;;;;;;7.88;2.58;;;;;;;22.70;33.15;102327.06;4850120;29;20060;-93
2022/06/16 05:49:42;;;;;;;6.07;2.58;;;;;;;22.73;33.40;102333.19;4842160;29;20130;-91
2022/06/16 05:52:19;;;;;;;5.53;2.63;;;;;;;22.72;33.30;102326.16;4845750;29;20036;-92
2022/06/16 05:54:45;;;;;;;8.57;2.78;;;;;;;22.70;33.34;102322.69;4865991;29;20026;-91
2022/06/16 05:57:11;;;;;;;6.15;2.50;;;;;;;22.73;33.32;102327.94;4833795;29;20034;-93
2022/06/16 05:59:38;;;;;;;7.30;2.58;;;;;;;22.69;33.35;102327.94;4818840;29;20084;-92
2022/06/16 06:02:05;;;;;;;6.75;2.53;;;;;;;22.70;33.16;102330.56;4848932;29;20033;-92
2022/06/16 06:04:32;;;;;;;9.52;2.42;;;;;;;22.79;32.66;102321.75;4849359;29;20060;-92
2022/06/16 06:06:59;;;;;;;6.88;2.45;;;;;;;22.93;32.56;102321.63;4865955;29;20025;-92
2022/06/16 06:18:09;;;;;;;8.48;3.15;;;;;;;23.25;31.84;102316.09;4866976;29;20098;-92
2022/06/16 06:20:35;;;;;;;7.35;3.00;;;;;;;23.36;32.09;102308.97;4818927;29;20025;-92
2022/06/16 06:23:00;;;;;;;8.15;3.00;;;;;;;23.33;31.99;102314.28;4865585;29;20030;-91
2022/06/16 06:25:26;;;;;;;11.55;3.75;;;;;;;23.34;32.17;102307.25;4849844;29;20038;-92
2022/06/16 06:27:55;;;;;;;8.70;3.40;;;;;;;23.36;31.84;102308.13;4834610;29;20105;-92
2022/06/16 06:30:26;;;;;;;10.85;3.40;;;;;;;23.30;31.99;102309.06;4819487;29;20039;-92
2022/06/16 06:32:52;;;;;;;9.45;3.40;;;;;;;23.41;32.44;102311.59;4850099;29;20041;-92
2022/06/16 06:35:19;;;;;;;7.22;3.40;;;;;;;23.35;32.32;102306.38;4819862;29;20086;-92
2022/06/16 06:37:44;;;;;;;9.55;3.40;;;;;;;23.26;32.33;102302.09;4843603;29;20128;-92
2022/06/16 06:40:17;;;;;;;11.60;3.65;;;;;;;23.27;32.53;102301.19;4850135;29;20092;-92
2022/06/16 06:42:43;;;;;;;;;;;;;;;23.32;32.32;102302.03;4866439;29;20030;-91
2022/06/16 06:45:09;;;;;;;11.93;3.30;;;;;;;23.37;32.13;102307.25;4834197;29;20403;-92
2022/06/16 06:47:34;;;;;;;7.57;3.30;;;;;;;23.33;31.89;102301.16;4818898;29;20036;-92
2022/06/16 06:49:59;;;;;;;6.88;2.88;;;;;;;23.35;31.74;102301.13;4848951;29;20038;-91
2022/06/16 06:52:25;;;;;;;6.57;3.03;;;;;;;23.40;31.76;102301.94;4832537;29;20085;-92
2022/06/16 06:54:50;;;;;;;12.05;2.80;;;;;;;23.57;31.54;102299.13;4817210;29;20040;-92
2022/06/16 06:57:22;;;;;;;12.65;2.83;;;;;;;23.68;31.74;102299.88;4817840;29;20060;-89
2022/06/16 06:59:47;;;;;;;8.30;3.30;;;;;;;23.77;31.76;102302.41;4847552;29;20037;-91
2022/06/16 07:02:15;;;;;;;8.07;2.67;;;;;;;23.84;31.67;102310.22;4832034;29;20029;-91
2022/06/16 07:04:44;;;;;;;8.40;2.47;;;;;;;23.84;31.73;102304.97;4831856;29;20048;-91
2022/06/16 07:07:12;;;;;;;9.50;2.40;;;;;;;23.84;31.67;102299.72;4847425;29;20475;-93
2022/06/16 07:09:37;;;;;;;8.18;2.70;;;;;;;23.46;31.45;102304.50;4848042;29;20495;-90
2022/06/16 07:12:04;;;;;;;10.70;2.90;;;;;;;23.16;31.21;102309.19;4847935;29;20033;-91
2022/06/16 07:14:33;;;;;;;6.90;2.55;;;;;;;23.06;31.39;102304.03;4817401;29;20029;-92
2022/06/16 07:16:58;;;;;;;6.10;2.40;;;;;;;23.05;31.20;102312.81;4818128;29;20038;-92
2022/06/16 07:19:24;;;;;;;8.05;2.45;;;;;;;23.11;31.07;102313.63;4847709;29;20029;-92
2022/06/16 07:21:49;;;;;;;6.30;2.60;;;;;;;23.03;30.84;102323.31;4847677;29;20124;-92
2022/06/16 07:24:14;;;;;;;11.02;2.10;;;;;;;23.03;30.82;102322.44;4832093;29;20388;-79
2022/06/16 07:26:40;;;;;;;6.35;2.20;;;;;;;23.08;30.55;102325.91;4846094;29;20057;-79
2022/06/16 07:29:06;;;;;;;6.07;2.00;;;;;;;23.05;30.15;102333.81;4845969;29;20037;-79
2022/06/16 07:31:31;;;;;;;7.47;2.08;;;;;;;23.01;30.18;102338.22;4846100;29;20064;-80
2022/06/16 07:33:56;;;;;;;5.47;2.20;;;;;;;23.02;29.86;102345.22;4815945;29;20041;-78
2022/06/16 07:36:23;;;;;;;10.13;2.15;;;;;;;23.03;29.87;102346.94;4830768;29;20038;-78
2022/06/16 07:38:49;;;;;;;7.18;2.22;;;;;;;23.00;29.59;102344.38;4845440;29;20073;-78
2022/06/16 07:44:00;;;;;;;7.38;2.08;;;;;;;22.98;29.73;102351.34;4848678;29;20044;-80
2022/06/16 07:46:26;;;;;;;4.43;2.03;;;;;;;22.95;29.75;102344.38;4862301;29;20028;-78
2022/06/16 07:48:52;;;;;;;6.20;2.10;;;;;;;23.03;29.67;102357.44;4829122;29;20041;-78
2022/06/16 07:51:19;;;;;;;5.22;2.15;;;;;;;23.03;29.74;102357.44;4846059;29;20069;-79
2022/06/16 07:53:45;;;;;;;6.13;2.53;;;;;;;23.06;29.83;102360.06;4830538;29;20033;-79
2022/06/16 07:56:10;;;;;;;4.95;1.80;;;;;;;23.13;29.87;102360.88;4815267;29;20038;-79
2022/06/16 07:58:36;;;;;;;5.50;1.85;;;;;;;23.15;29.82;102365.22;4830393;29;20131;-78
2022/06/16 08:01:04;;;;;;;6.28;1.88;;;;;;;23.10;30.40;102360.88;4845595;29;20064;-79
2022/06/16 08:03:30;;;;;;;8.02;2.00;;;;;;;23.12;30.23;102360.00;4846116;29;20120;-79
2022/06/16 08:05:57;;;;;;;4.72;2.13;;;;;;;23.15;30.25;102361.75;4845323;29;20124;-78
2022/06/16 08:08:23;;;;;;;6.03;1.75;;;;;;;23.11;29.84;102354.78;4845434;29;20058;-78
2022/06/16 08:10:51;;;;;;;6.75;2.30;;;;;;;23.11;29.67;102357.41;4815286;29;20053;-78
2022/06/16 08:13:17;;;;;;;5.90;2.05;;;;;;;23.11;30.14;102360.88;4862012;29;20029;-79
2022/06/16 08:15:45;;;;;;;3.40;1.90;;;;;;;23.12;29.85;102349.47;4845146;29;20025;-78
2022/06/16 08:18:13;;;;;;;4.05;2.05;;;;;;;23.14;29.74;102358.22;4815639;29;20037;-78
2022/06/16 08:20:39;;;;;;;5.22;2.00;;;;;;;23.16;30.08;102348.56;4861742;29;20032;-79
2022/06/16 08:23:04;;;;;;;5.10;2.10;;;;;;;23.18;30.15;102351.19;4845005;29;20033;-79
2022/06/16 08:25:30;;;;;;;4.13;1.77;;;;;;;23.16;30.27;102353.81;4829937;29;20093;-79
2022/06/16 08:27:56;;;;;;;4.97;1.98;;;;;;;23.17;30.40;102360.84;4829956;29;20033;-79
2022/06/16 08:30:23;;;;;;;6.25;2.00;;;;;;;23.20;30.42;102358.19;4862239;29;20125;-91
2022/06/16 08:32:49;;;;;;;3.97;1.75;;;;;;;23.25;30.69;102362.50;4846232;29;20045;-91
2022/06/16 08:35:15;;;;;;;7.15;2.20;;;;;;;23.14;30.29;102363.47;4846662;29;20081;-91
2022/06/16 08:37:40;;;;;;;6.13;1.88;;;;;;;23.12;30.48;102365.25;4832929;29;20052;-92
2022/06/16 08:40:07;;;;;;;6.40;2.00;;;;;;;23.15;30.71;102378.38;4834846;29;20062;-91
2022/06/16 08:42:56;;;;;;;7.60;2.33;;;;;;;23.18;30.57;102378.31;4846894;29;20043;-90
2022/06/16 08:45:25;;;;;;;6.72;2.22;;;;;;;23.15;30.54;102381.00;4862984;29;20049;-91
2022/06/16 08:48:09;;;;;;;9.68;2.70;;;;;;;23.14;30.72;102373.13;4846261;29;20449;-93
2022/06/16 08:50:52;;;;;;;6.75;2.15;;;;;;;23.16;30.65;102373.97;4846191;29;20044;-92
2022/06/16 08:53:18;;;;;;;;;;;;;;;23.16;31.02;102372.22;4846343;29;20162;-90
2022/06/16 08:56:04;;;;;;;7.93;2.30;;;;;;;23.18;30.85;102372.22;4862477;29;19964;-92
2022/06/16 08:58:52;;;;;;;7.10;2.58;;;;;;;23.21;30.84;102374.78;4862489;29;20357;-92
2022/06/16 09:01:51;;;;;;;4.43;1.88;;;;;;;23.19;30.84;102366.94;4846425;29;20021;-90
2022/06/16 09:04:24;;;;;;;8.40;2.05;;;;;;;23.22;31.02;102375.69;4860872;29;20041;-91
2022/06/16 09:07:04;;;;;;;5.00;2.10;;;;;;;23.24;30.92;102381.81;4846357;29;20116;-92
2022/06/16 09:12:35;;;;;;;4.68;2.10;;;;;;;23.15;30.81;102383.63;4863583;29;20465;-90
2022/06/16 09:15:28;;;;;;;6.18;1.67;;;;;;;23.11;30.95;102381.03;4848263;29;20437;-92
2022/06/16 09:18:11;;;;;;;4.53;2.10;;;;;;;23.09;30.74;102386.28;4857170;29;20034;-92
2022/06/16 09:20:44;;;;;;;7.85;2.20;;;;;;;23.13;30.94;102387.16;4847159;29;20120;-91
2022/06/16 09:23:30;;;;;;;4.88;2.40;;;;;;;23.12;30.79;102388.00;4863754;29;20033;-91
2022/06/16 09:26:05;;;;;;;8.32;2.20;;;;;;;23.08;30.76;102384.56;4853182;29;20133;-92
2022/06/16 09:28:43;;;;;;;4.10;2.10;;;;;;;23.09;30.76;102386.28;4852720;29;20056;-91
2022/06/16 09:31:16;;;;;;;4.10;1.98;;;;;;;23.11;30.75;102389.78;4852005;29;20030;-92
2022/06/16 09:33:48;;;;;;;5.57;1.85;;;;;;;23.11;30.87;102392.41;4850569;29;20533;-91
2022/06/16 09:36:32;;;;;;;6.90;2.58;;;;;;;23.15;31.19;102382.75;4865032;29;20029;-92
2022/06/16 09:39:29;;;;;;;6.65;2.13;;;;;;;23.11;31.00;102386.28;4845721;29;20061;-90
2022/06/16 09:45:09;;;;;;;5.63;2.30;;;;;;;23.16;31.01;102395.84;4862701;29;20040;-91
2022/06/16 09:47:43;;;;;;;4.30;2.10;;;;;;;23.24;31.35;102395.78;4847040;29;20029;-91
2022/06/16 09:50:20;;;;;;;7.35;2.75;;;;;;;23.29;31.15;102398.38;4863307;29;20109;-92
2022/06/16 09:52:54;;;;;;;7.45;2.95;;;;;;;23.32;31.08;102404.50;4845575;29;20058;-93
2022/06/16 09:55:32;;;;;;;5.43;2.75;;;;;;;23.32;31.26;102406.22;4845480;29;20029;-91
2022/06/16 09:58:06;;;;;;;7.13;2.55;;;;;;;23.27;31.39;102411.50;4846181;29;20044;-92
2022/06/16 10:00:34;;;;;;;5.22;2.38;;;;;;;23.25;31.17;102405.41;4845925;29;20025;-91
2022/06/16 10:03:12;;;;;;;8.55;2.65;;;;;;;23.24;31.06;102397.56;4816572;29;20029;-94
2022/06/16 10:05:49;;;;;;;8.43;2.40;;;;;;;23.20;31.44;102397.56;4862917;29;20030;-91
2022/06/16 10:08:28;;;;;;;4.88;2.20;;;;;;;23.22;31.20;102391.44;4851204;29;20041;-91
2022/06/16 10:11:11;;;;;;;4.60;2.30;;;;;;;23.23;31.43;102401.06;4845129;29;20037;-91
2022/06/16 10:14:02;;;;;;;6.38;2.35;;;;;;;23.17;31.41;102402.84;4848938;29;20025;-91
2022/06/16 10:16:42;;;;;;;7.15;2.40;;;;;;;23.11;31.45;102402.91;4865800;29;20068;-92
2022/06/16 10:19:08;;;;;;;5.55;2.13;;;;;;;23.10;31.49;102392.41;4849830;29;20429;-93
2022/06/16 10:21:35;;;;;;;4.00;2.03;;;;;;;23.14;31.56;102400.25;4823031;29;20059;-92
2022/06/16 10:24:03;;;;;;;6.75;2.13;;;;;;;23.15;31.39;102407.25;4849386;29;20040;-92
2022/06/16 10:26:28;;;;;;;7.30;2.40;;;;;;;23.19;31.34;102405.44;4866037;29;20492;-91
2022/06/16 10:29:20;;;;;;;6.63;2.30;;;;;;;23.19;31.32;102402.81;4833971;29;20033;-92
2022/06/16 10:31:48;;;;;;;5.97;2.42;;;;;;;23.15;31.25;102399.38;4848724;29;20081;-90
2022/06/16 10:34:36;;;;;;;6.40;2.50;;;;;;;23.14;31.37;102400.25;4849237;29;20032;-91
2022/06/16 10:37:10;;;;;;;7.10;2.13;;;;;;;23.15;31.32;102409.88;4850581;29;20104;-91
2022/06/16 10:39:49;;;;;;;6.03;2.20;;;;;;;23.16;31.63;102419.47;4864600;29;20058;-90
2022/06/16 10:42:26;;;;;;;8.68;2.45;;;;;;;23.17;31.42;102410.75;4847992;29;20038;-89
2022/06/16 10:44:52;;;;;;;7.22;2.67;;;;;;;23.23;31.64;102411.56;4848408;29;20029;-89
2022/06/16 10:47:24;;;;;;;5.38;2.22;;;;;;;23.24;31.57;102414.19;4848296;29;20085;-92
2022/06/16 10:49:55;;;;;;;6.18;2.35;;;;;;;23.24;31.36;102418.56;4849366;29;20025;-91
2022/06/16 10:52:27;;;;;;;7.70;2.53;;;;;;;23.22;31.64;102420.34;4839492;29;20040;-91
2022/06/16 10:55:14;;;;;;;10.52;2.42;;;;;;;23.22;31.85;102423.81;4848710;29;20417;-89
2022/06/16 10:57:56;;;;;;;9.38;2.45;;;;;;;23.25;31.94;102426.41;4847054;29;20036;-86
2022/06/16 11:00:23;;;;;;;7.18;2.25;;;;;;;23.36;31.48;102423.69;4846870;29;20028;-88
2022/06/16 11:03:05;;;;;;;5.07;1.95;;;;;;;23.39;31.79;102419.31;4846676;29;20025;-88
2022/06/16 11:05:36;;;;;;;5.20;2.15;;;;;;;23.39;32.77;102423.69;4863160;29;20527;-88
2022/06/16 11:08:11;;;;;;;3.22;1.92;;;;;;;23.41;32.85;102407.03;4846682;29;20120;-91
2022/06/16 11:10:42;;;;;;;7.47;2.20;;;;;;;23.44;33.27;102416.63;4846661;29;20036;-88
2022/06/16 11:13:16;;;;;;;7.68;2.58;;;;;;;23.44;33.80;102416.63;4846479;29;20068;-89
2022/06/16 11:15:48;;;;;;;6.90;2.38;;;;;;;23.42;33.60;102414.00;4846866;29;20165;-88
2022/06/16 11:18:22;;;;;;;5.15;2.45;;;;;;;23.42;34.18;102410.50;4863277;29;20029;-88
2022/06/16 11:20:51;;;;;;;5.40;2.42;;;;;;;23.42;33.93;102413.16;4846999;29;20029;-85
2022/06/16 11:23:21;;;;;;;5.47;2.08;;;;;;;23.44;33.86;102411.38;4847066;29;20026;-92
2022/06/16 11:25:59;;;;;;;5.80;2.20;;;;;;;23.45;34.02;102413.09;4847220;29;20033;-89
2022/06/16 11:28:25;;;;;;;6.05;2.50;;;;;;;23.48;34.27;102409.59;4862942;29;20421;-85
2022/06/16 11:30:51;;;;;;;7.15;2.50;;;;;;;23.45;34.17;102410.47;4846643;29;20078;-89
2022/06/16 11:34:06;;;;;;;9.27;2.78;;;;;;;23.45;34.42;102420.13;4846661;29;20496;-85
2022/06/16 11:36:36;;;;;;;8.63;2.65;;;;;;;23.46;34.28;102408.75;4862438;29;20486;-85
2022/06/16 11:39:10;;;;;;;7.20;2.70;;;;;;;23.46;34.58;102414.84;4845585;29;20061;-85
2022/06/16 11:41:36;;;;;;;5.38;2.45;;;;;;;23.48;34.33;102420.97;4845859;29;20033;-86
2022/06/16 11:44:20;;;;;;;7.65;2.47;;;;;;;23.50;34.60;102415.72;4830624;29;20038;-85
2022/06/16 11:47:00;;;;;;;5.65;2.70;;;;;;;23.51;34.32;102410.41;4845959;29;20082;-85
2022/06/16 11:49:38;;;;;;;6.70;2.65;;;;;;;23.52;34.95;102420.06;4845855;29;20026;-87
2022/06/16 11:52:19;;;;;;;7.53;2.55;;;;;;;23.53;34.74;102423.56;4846124;29;20460;-86
2022/06/16 11:55:15;;;;;;;4.55;2.22;;;;;;;23.55;34.73;102435.78;4845941;29;20050;-85
2022/06/16 11:58:14;;;;;;;5.43;2.10;;;;;;;23.55;34.75;102441.03;4862563;29;20057;-85
2022/06/16 12:01:09;;;;;;;5.28;2.60;;;;;;;23.55;34.51;102448.91;4845910;29;20026;-85
2022/06/16 12:04:12;;;;;;;8.80;2.30;;;;;;;23.57;34.66;102444.53;4845660;29;20066;-85